Time;durP1;ratioP1;P1;durP2;ratioP2;P2;SDS_P1;SDS_P2;PMS_P1;PMS_P2;Temp;Humidity;BMP_temperature;BMP_pressure;BME280_temperature;BME280_humidity;BME280_pressure;Samples;Min_cycle;Max_cycle;Signal;HPM_P1;HPM_P2
2021/03/20 00:00:04;;;;;;;;;;;;;;;;;;5084000;28;20357;-61
2021/03/20 00:02:29;;;;;;;;;;;;;;;;;;5058053;28;20406;-61
2021/03/20 00:04:54;;;;;;;;;;;;;;;;;;5105236;27;19962;-61
2021/03/20 00:07:20;;;;;;;;;;;;;;;;;;5072925;28;19912;-61
2021/03/20 00:09:49;;;;;;;;;;;;;;;;;;5075289;28;19917;-61
2021/03/20 00:12:14;;;;;;;;;;;;;;;;;;5070558;28;19949;-61
2021/03/20 00:14:39;;;;;;;;;;;;;;;;;;5088414;28;19913;-61
2021/03/20 00:17:04;;;;;;;;;;;;;;;;;;5095445;27;19917;-62
2021/03/20 00:19:29;;;;;;;;;;;;;;;;;;5067179;28;20331;-62
2021/03/20 00:21:55;;;;;;;;;;;;;;;;;;5105072;27;20628;-61
2021/03/20 00:24:20;;;;;;;;;;;;;;;;;;5075657;28;20367;-61
2021/03/20 00:26:45;;;;;;;;;;;;;;;;;;5076694;28;19920;-61
2021/03/20 00:29:10;;;;;;;;;;;;;;;;;;5082318;28;20015;-61
2021/03/20 00:31:35;;;;;;;;;;;;;;;;;;5078665;28;20000;-61
2021/03/20 00:34:00;;;;;;;;;;;;;;;;;;5074657;28;20118;-62
2021/03/20 00:36:25;;;;;;;;;;;;;;;;;;5104785;27;19913;-62
2021/03/20 00:38:50;;;;;;;;;;;;;;;;;;5076211;28;20368;-61
2021/03/20 00:41:16;;;;;;;;;;;;;;;;;;5076289;28;19918;-62
2021/03/20 00:43:41;;;;;;;;;;;;;;;;;;5074708;28;19959;-62
2021/03/20 00:46:06;;;;;;;;;;;;;;;;;;5071268;28;19908;-62
2021/03/20 00:48:32;;;;;;;;;;;;;;;;;;5069443;28;19912;-62
2021/03/20 00:50:57;;;;;;;;;;;;;;;;;;5084996;28;20260;-62
2021/03/20 00:53:22;;;;;;;;;;;;;;;;;;5079844;28;20326;-61
2021/03/20 00:55:47;;;;;;;;;;;;;;;;;;5065705;28;20312;-62
2021/03/20 00:58:12;;;;;;;;;;;;;;;;;;5068429;28;20283;-61
2021/03/20 01:00:37;;;;;;;;;;;;;;;;;;5100051;27;20287;-61
2021/03/20 01:03:02;;;;;;;;;;;;;;;;;;5056691;28;20293;-62
2021/03/20 01:05:27;;;;;;;;;;;;;;;;;;5085755;28;20329;-62
2021/03/20 01:07:52;;;;;;;;;;;;;;;;;;5093319;27;20292;-62
2021/03/20 01:10:18;;;;;;;;;;;;;;;;;;5074412;28;20027;-62
2021/03/20 01:12:43;;;;;;;;;;;;;;;;;;5091117;28;19912;-61
2021/03/20 01:15:08;;;;;;;;;;;;;;;;;;5087628;28;19916;-61
2021/03/20 01:17:33;;;;;;;;;;;;;;;;;;5073166;28;19913;-62
2021/03/20 01:19:58;;;;;;;;;;;;;;;;;;5072390;28;19919;-62
2021/03/20 01:22:23;;;;;;;;;;;;;;;;;;5071218;28;19919;-62
2021/03/20 01:24:48;;;;;;;;;;;;;;;;;;5108357;27;19912;-62
2021/03/20 01:27:13;;;;;;;;;;;;;;;;;;5070827;28;19913;-63
2021/03/20 01:29:38;;;;;;;;;;;;;;;;;;5055286;28;19916;-62
2021/03/20 01:32:03;;;;;;;;;;;;;;;;;;5054445;28;19971;-61
2021/03/20 01:34:29;;;;;;;;;;;;;;;;;;5054393;28;19917;-62
2021/03/20 01:36:54;;;;;;;;;;;;;;;;;;5065995;28;19912;-62
2021/03/20 01:39:19;;;;;;;;;;;;;;;;;;5067142;28;19978;-62
2021/03/20 01:41:44;;;;;;;;;;;;;;;;;;5072055;28;19917;-61
2021/03/20 01:44:09;;;;;;;;;;;;;;;;;;5100872;27;19920;-62
2021/03/20 01:46:34;;;;;;;;;;;;;;;;;;5070779;28;19920;-62
2021/03/20 01:48:59;;;;;;;;;;;;;;;;;;5066111;28;19917;-62
2021/03/20 01:51:24;;;;;;;;;;;;;;;;;;5075153;28;19924;-61
2021/03/20 01:53:50;;;;;;;;;;;;;;;;;;5072948;28;19913;-62
2021/03/20 01:56:15;;;;;;;;;;;;;;;;;;5069898;28;19959;-62
2021/03/20 01:58:40;;;;;;;;;;;;;;;;;;5054917;28;19962;-62
2021/03/20 02:01:05;;;;;;;;;;;;;;;;;;5101544;27;19967;-62
2021/03/20 02:03:31;;;;;;;;;;;;;;;;;;5071958;28;19923;-62
2021/03/20 02:05:56;;;;;;;;;;;;;;;;;;5103331;28;19934;-62
2021/03/20 02:08:21;;;;;;;;;;;;;;;;;;5072425;28;19920;-61
2021/03/20 02:10:46;;;;;;;;;;;;;;;;;;5116684;27;20407;-62
2021/03/20 02:13:11;;;;;;;;;;;;;;;;;;5083363;28;20379;-62
2021/03/20 02:15:36;;;;;;;;;;;;;;;;;;5069056;28;20007;-61
2021/03/20 02:18:01;;;;;;;;;;;;;;;;;;5067453;28;20367;-61
2021/03/20 02:20:26;;;;;;;;;;;;;;;;;;5067870;28;19917;-61
2021/03/20 02:22:52;;;;;;;;;;;;;;;;;;5074172;28;19916;-61
2021/03/20 02:25:17;;;;;;;;;;;;;;;;;;5120099;27;19912;-61
2021/03/20 02:27:42;;;;;;;;;;;;;;;;;;5061778;28;19936;-61
2021/03/20 02:30:07;;;;;;;;;;;;;;;;;;5067858;28;20362;-61
2021/03/20 02:32:32;;;;;;;;;;;;;;;;;;5060100;28;19947;-61
2021/03/20 02:34:57;;;;;;;;;;;;;;;;;;5067070;28;19917;-61
2021/03/20 02:37:22;;;;;;;;;;;;;;;;;;5054096;28;19913;-61
2021/03/20 02:39:49;;;;;;;;;;;;;;;;;;5061434;28;20410;-61
2021/03/20 02:42:14;;;;;;;;;;;;;;;;;;5079295;28;19917;-62
2021/03/20 02:44:39;;;;;;;;;;;;;;;;;;5104276;28;19912;-61
2021/03/20 02:47:04;;;;;;;;;;;;;;;;;;5092978;28;19924;-61
2021/03/20 02:49:29;;;;;;;;;;;;;;;;;;5055982;28;19925;-61
2021/03/20 02:51:54;;;;;;;;;;;;;;;;;;5053234;28;19920;-61
2021/03/20 02:54:19;;;;;;;;;;;;;;;;;;5079348;28;19916;-61
2021/03/20 02:56:44;;;;;;;;;;;;;;;;;;5075324;28;19919;-61
2021/03/20 02:59:10;;;;;;;;;;;;;;;;;;5116862;27;20355;-61
2021/03/20 03:01:35;;;;;;;;;;;;;;;;;;5068417;28;20342;-61
2021/03/20 03:04:00;;;;;;;;;;;;;;;;;;5061427;28;20336;-61
2021/03/20 03:06:25;;;;;;;;;;;;;;;;;;5063421;28;20284;-61
2021/03/20 03:08:50;;;;;;;;;;;;;;;;;;5075100;28;19912;-61
2021/03/20 03:11:15;;;;;;;;;;;;;;;;;;5087863;28;19914;-61
2021/03/20 03:13:40;;;;;;;;;;;;;;;;;;5092624;28;19999;-61
2021/03/20 03:16:05;;;;;;;;;;;;;;;;;;5083143;28;20006;-61
2021/03/20 03:18:31;;;;;;;;;;;;;;;;;;5072677;28;19999;-59
2021/03/20 03:20:56;;;;;;;;;;;;;;;;;;5073658;28;20015;-62
2021/03/20 03:23:21;;;;;;;;;;;;;;;;;;5065338;28;19949;-62
2021/03/20 03:25:46;;;;;;;;;;;;;;;;;;5068511;28;20014;-61
2021/03/20 03:28:11;;;;;;;;;;;;;;;;;;5069059;28;19912;-62
2021/03/20 03:30:36;;;;;;;;;;;;;;;;;;5073548;28;19970;-62
2021/03/20 03:33:01;;;;;;;;;;;;;;;;;;5090501;28;19920;-62
2021/03/20 03:35:26;;;;;;;;;;;;;;;;;;5068084;28;19927;-62
2021/03/20 03:37:51;;;;;;;;;;;;;;;;;;5079639;28;20329;-62
2021/03/20 03:40:17;;;;;;;;;;;;;;;;;;5084914;28;20295;-62
2021/03/20 03:42:42;;;;;;;;;;;;;;;;;;5055873;28;20265;-62
2021/03/20 03:45:07;;;;;;;;;;;;;;;;;;5085502;28;20429;-62
2021/03/20 03:47:32;;;;;;;;;;;;;;;;;;5073199;28;20335;-62
2021/03/20 03:49:57;;;;;;;;;;;;;;;;;;5115556;28;20400;-62
2021/03/20 03:52:22;;;;;;;;;;;;;;;;;;5067909;28;19951;-62
2021/03/20 03:54:47;;;;;;;;;;;;;;;;;;5072475;28;19913;-62
2021/03/20 03:57:12;;;;;;;;;;;;;;;;;;5070272;28;19913;-62
2021/03/20 03:59:37;;;;;;;;;;;;;;;;;;5071347;28;19913;-61
2021/03/20 04:02:03;;;;;;;;;;;;;;;;;;5055631;28;19920;-62
2021/03/20 04:04:28;;;;;;;;;;;;;;;;;;5068837;28;19912;-62
2021/03/20 04:06:53;;;;;;;;;;;;;;;;;;5079198;28;19913;-62
2021/03/20 04:09:18;;;;;;;;;;;;;;;;;;5079606;28;19920;-62
2021/03/20 04:11:43;;;;;;;;;;;;;;;;;;5083151;28;19920;-61
2021/03/20 04:14:08;;;;;;;;;;;;;;;;;;5105399;28;20287;-61
2021/03/20 04:16:33;;;;;;;;;;;;;;;;;;5070952;28;19999;-62
2021/03/20 04:18:58;;;;;;;;;;;;;;;;;;5067691;28;19912;-61
2021/03/20 04:21:23;;;;;;;;;;;;;;;;;;5088399;28;19913;-61
2021/03/20 04:23:49;;;;;;;;;;;;;;;;;;5075975;28;19966;-62
2021/03/20 04:26:14;;;;;;;;;;;;;;;;;;5065620;28;19920;-62
2021/03/20 04:28:39;;;;;;;;;;;;;;;;;;5071666;28;19912;-62
2021/03/20 04:31:04;;;;;;;;;;;;;;;;;;5069652;28;19921;-62
2021/03/20 04:33:29;;;;;;;;;;;;;;;;;;5075627;28;19909;-62
2021/03/20 04:35:54;;;;;;;;;;;;;;;;;;5070670;28;20035;-62
2021/03/20 04:38:19;;;;;;;;;;;;;;;;;;5071788;28;19948;-62
2021/03/20 04:40:44;;;;;;;;;;;;;;;;;;5063341;28;19975;-62
2021/03/20 04:43:09;;;;;;;;;;;;;;;;;;5074774;28;19956;-62
2021/03/20 04:45:35;;;;;;;;;;;;;;;;;;5072088;28;19944;-62
2021/03/20 04:48:00;;;;;;;;;;;;;;;;;;5074227;28;20352;-62
2021/03/20 04:50:25;;;;;;;;;;;;;;;;;;5115938;27;19969;-62
2021/03/20 04:52:50;;;;;;;;;;;;;;;;;;5082261;28;20272;-62
2021/03/20 04:55:15;;;;;;;;;;;;;;;;;;5054580;28;20305;-61
2021/03/20 04:57:40;;;;;;;;;;;;;;;;;;5062081;28;19935;-62
2021/03/20 05:00:05;;;;;;;;;;;;;;;;;;5088333;28;20294;-62
2021/03/20 05:02:31;;;;;;;;;;;;;;;;;;5074456;28;20295;-62
2021/03/20 05:04:56;;;;;;;;;;;;;;;;;;5074106;28;19908;-62
2021/03/20 05:07:21;;;;;;;;;;;;;;;;;;5075982;28;19934;-62
2021/03/20 05:09:46;;;;;;;;;;;;;;;;;;5086842;28;20003;-61
2021/03/20 05:12:11;;;;;;;;;;;;;;;;;;5084251;28;20442;-62
2021/03/20 05:14:37;;;;;;;;;;;;;;;;;;5079703;28;19917;-61
2021/03/20 05:17:02;;;;;;;;;;;;;;;;;;5071231;28;19939;-62
2021/03/20 05:19:27;;;;;;;;;;;;;;;;;;5082143;28;20282;-62
2021/03/20 05:21:54;;;;;;;;;;;;;;;;;;5078797;28;19995;-62
2021/03/20 05:24:19;;;;;;;;;;;;;;;;;;5073717;28;19948;-61
2021/03/20 05:26:44;;;;;;;;;;;;;;;;;;5099720;27;19963;-61
2021/03/20 05:29:10;;;;;;;;;;;;;;;;;;5073962;28;19951;-61
2021/03/20 05:31:35;;;;;;;;;;;;;;;;;;5085670;28;20333;-61
2021/03/20 05:34:00;;;;;;;;;;;;;;;;;;5079810;28;19939;-62
2021/03/20 05:36:26;;;;;;;;;;;;;;;;;;5064327;28;20418;-62
2021/03/20 05:38:51;;;;;;;;;;;;;;;;;;5068361;28;19920;-61
2021/03/20 05:41:16;;;;;;;;;;;;;;;;;;5082650;28;19945;-62
2021/03/20 05:43:41;;;;;;;;;;;;;;;;;;5093145;28;19919;-62
2021/03/20 05:46:06;;;;;;;;;;;;;;;;;;5069894;28;19916;-62
2021/03/20 05:48:31;;;;;;;;;;;;;;;;;;5072686;28;20081;-62
2021/03/20 05:50:56;;;;;;;;;;;;;;;;;;5087544;28;20402;-62
2021/03/20 05:53:21;;;;;;;;;;;;;;;;;;5092976;28;20363;-62
2021/03/20 05:55:47;;;;;;;;;;;;;;;;;;5077321;28;20403;-62
2021/03/20 05:58:12;;;;;;;;;;;;;;;;;;5070417;28;20283;-62
2021/03/20 06:00:37;;;;;;;;;;;;;;;;;;5115824;27;20264;-62
2021/03/20 06:03:02;;;;;;;;;;;;;;;;;;5059846;28;20387;-62
2021/03/20 06:05:27;;;;;;;;;;;;;;;;;;5104118;27;19912;-61
2021/03/20 06:07:52;;;;;;;;;;;;;;;;;;5104476;28;19967;-62
2021/03/20 06:10:17;;;;;;;;;;;;;;;;;;5081229;28;19949;-60
2021/03/20 06:12:42;;;;;;;;;;;;;;;;;;5080997;28;19912;-61
2021/03/20 06:15:08;;;;;;;;;;;;;;;;;;5074115;28;19963;-61
2021/03/20 06:17:33;;;;;;;;;;;;;;;;;;5068443;28;19936;-61
2021/03/20 06:19:58;;;;;;;;;;;;;;;;;;5064860;28;19913;-61
2021/03/20 06:22:23;;;;;;;;;;;;;;;;;;5072944;28;19939;-61
2021/03/20 06:24:48;;;;;;;;;;;;;;;;;;5076558;28;19913;-61
2021/03/20 06:27:13;;;;;;;;;;;;;;;;;;5095051;27;19966;-61
2021/03/20 06:29:39;;;;;;;;;;;;;;;;;;5070007;28;19916;-61
2021/03/20 06:32:04;;;;;;;;;;;;;;;;;;5070721;28;19920;-61
2021/03/20 06:34:29;;;;;;;;;;;;;;;;;;5070097;28;20009;-61
2021/03/20 06:36:54;;;;;;;;;;;;;;;;;;5067808;28;19912;-62
2021/03/20 06:39:19;;;;;;;;;;;;;;;;;;5089516;27;20003;-61
2021/03/20 06:41:44;;;;;;;;;;;;;;;;;;5074724;28;20397;-61
2021/03/20 06:44:09;;;;;;;;;;;;;;;;;;5088810;27;19919;-61
2021/03/20 06:46:34;;;;;;;;;;;;;;;;;;5069254;28;19915;-61
2021/03/20 06:48:59;;;;;;;;;;;;;;;;;;5072078;28;19915;-61
2021/03/20 06:51:25;;;;;;;;;;;;;;;;;;5071417;28;19923;-61
2021/03/20 06:53:50;;;;;;;;;;;;;;;;;;5102787;28;19913;-61
2021/03/20 06:56:15;;;;;;;;;;;;;;;;;;5068383;28;19921;-62
2021/03/20 06:58:40;;;;;;;;;;;;;;;;;;5060807;28;19919;-62
2021/03/20 07:01:05;;;;;;;;;;;;;;;;;;5071862;28;20000;-61
2021/03/20 07:03:30;;;;;;;;;;;;;;;;;;5054340;28;19917;-61
2021/03/20 07:05:56;;;;;;;;;;;;;;;;;;5090333;27;19917;-61
2021/03/20 07:08:21;;;;;;;;;;;;;;;;;;5057238;28;19919;-61
2021/03/20 07:10:46;;;;;;;;;;;;;;;;;;5091376;28;20007;-61
2021/03/20 07:13:11;;;;;;;;;;;;;;;;;;5059037;28;20020;-61
2021/03/20 07:15:36;;;;;;;;;;;;;;;;;;5083477;28;20415;-61
2021/03/20 07:18:01;;;;;;;;;;;;;;;;;;5061333;28;20360;-61
2021/03/20 07:20:27;;;;;;;;;;;;;;;;;;5060472;28;20441;-61
2021/03/20 07:22:52;;;;;;;;;;;;;;;;;;5098218;28;19913;-62
2021/03/20 07:25:17;;;;;;;;;;;;;;;;;;5110928;28;20414;-62
2021/03/20 07:27:42;;;;;;;;;;;;;;;;;;5064746;28;19920;-61
2021/03/20 07:30:07;;;;;;;;;;;;;;;;;;5066761;28;19920;-62
2021/03/20 07:32:32;;;;;;;;;;;;;;;;;;5059297;28;19921;-61
2021/03/20 07:34:57;;;;;;;;;;;;;;;;;;5056288;28;20011;-62
2021/03/20 07:37:23;;;;;;;;;;;;;;;;;;5089957;28;19913;-61
2021/03/20 07:39:48;;;;;;;;;;;;;;;;;;5054664;28;19913;-62
2021/03/20 07:42:13;;;;;;;;;;;;;;;;;;5072605;28;19916;-61
2021/03/20 07:44:38;;;;;;;;;;;;;;;;;;5071993;28;19908;-61
2021/03/20 07:47:03;;;;;;;;;;;;;;;;;;5084851;28;19912;-61
2021/03/20 07:49:28;;;;;;;;;;;;;;;;;;5071547;28;20008;-61
2021/03/20 07:51:53;;;;;;;;;;;;;;;;;;5062887;28;20379;-61
2021/03/20 07:54:18;;;;;;;;;;;;;;;;;;5070789;28;19913;-61
2021/03/20 07:56:44;;;;;;;;;;;;;;;;;;5079866;28;19908;-61
2021/03/20 07:59:09;;;;;;;;;;;;;;;;;;5096398;28;19908;-61
2021/03/20 08:01:34;;;;;;;;;;;;;;;;;;5081449;28;19913;-61
2021/03/20 08:03:59;;;;;;;;;;;;;;;;;;5077824;28;19912;-61
2021/03/20 08:06:24;;;;;;;;;;;;;;;;;;5086629;28;20003;-62
2021/03/20 08:08:49;;;;;;;;;;;;;;;;;;5106120;27;20366;-61
2021/03/20 08:11:15;;;;;;;;;;;;;;;;;;5080711;28;19912;-62
2021/03/20 08:13:40;;;;;;;;;;;;;;;;;;5075620;28;20053;-61
2021/03/20 08:16:05;;;;;;;;;;;;;;;;;;5064683;28;20248;-62
2021/03/20 08:18:30;;;;;;;;;;;;;;;;;;5069833;28;19924;-62
2021/03/20 08:20:55;;;;;;;;;;;;;;;;;;5065278;28;19917;-62
2021/03/20 08:23:20;;;;;;;;;;;;;;;;;;5065104;28;19913;-62
2021/03/20 08:25:47;;;;;;;;;;;;;;;;;;5055650;28;19970;-63
2021/03/20 08:28:12;;;;;;;;;;;;;;;;;;5090238;27;19913;-62
2021/03/20 08:30:37;;;;;;;;;;;;;;;;;;5070451;28;20000;-62
2021/03/20 08:33:03;;;;;;;;;;;;;;;;;;5072734;28;20015;-62
2021/03/20 08:35:28;;;;;;;;;;;;;;;;;;5089312;28;20014;-63
2021/03/20 08:37:53;;;;;;;;;;;;;;;;;;5071176;28;19956;-61
2021/03/20 08:40:18;;;;;;;;;;;;;;;;;;5095167;28;20358;-61
2021/03/20 08:42:44;;;;;;;;;;;;;;;;;;5072345;28;19913;-61
2021/03/20 08:45:09;;;;;;;;;;;;;;;;;;5101678;27;20348;-61
2021/03/20 08:47:34;;;;;;;;;;;;;;;;;;5056108;28;19912;-59
2021/03/20 08:49:59;;;;;;;;;;;;;;;;;;5063098;28;19912;-61
2021/03/20 08:52:24;;;;;;;;;;;;;;;;;;5060147;28;19920;-61
2021/03/20 08:54:49;;;;;;;;;;;;;;;;;;5073013;28;19920;-61
2021/03/20 08:57:15;;;;;;;;;;;;;;;;;;5070792;28;19952;-62
2021/03/20 08:59:40;;;;;;;;;;;;;;;;;;5090170;28;20374;-61
2021/03/20 09:02:05;;;;;;;;;;;;;;;;;;5080523;28;19919;-62
2021/03/20 09:04:30;;;;;;;;;;;;;;;;;;5085079;28;19985;-61
2021/03/20 09:06:55;;;;;;;;;;;;;;;;;;5089653;28;19948;-62
2021/03/20 09:09:20;;;;;;;;;;;;;;;;;;5094273;28;19963;-62
2021/03/20 09:11:45;;;;;;;;;;;;;;;;;;5080813;28;19912;-62
2021/03/20 09:14:10;;;;;;;;;;;;;;;;;;5077662;28;19924;-61
2021/03/20 09:16:36;;;;;;;;;;;;;;;;;;5077403;28;19934;-62
2021/03/20 09:19:01;;;;;;;;;;;;;;;;;;5072859;28;19918;-61
2021/03/20 09:21:26;;;;;;;;;;;;;;;;;;5081985;28;19939;-62
2021/03/20 09:23:51;;;;;;;;;;;;;;;;;;5094507;28;19913;-62
2021/03/20 09:26:16;;;;;;;;;;;;;;;;;;5077664;28;19912;-61
2021/03/20 09:28:41;;;;;;;;;;;;;;;;;;5078262;28;19936;-61
2021/03/20 09:31:06;;;;;;;;;;;;;;;;;;5095431;28;19920;-61
2021/03/20 09:33:32;;;;;;;;;;;;;;;;;;5086766;28;20299;-61
2021/03/20 09:35:57;;;;;;;;;;;;;;;;;;5058227;28;19924;-61
2021/03/20 09:38:22;;;;;;;;;;;;;;;;;;5073267;28;19913;-62
2021/03/20 09:40:49;;;;;;;;;;;;;;;;;;5080111;28;19919;-61
2021/03/20 09:43:14;;;;;;;;;;;;;;;;;;5075226;28;20030;-61
2021/03/20 09:45:39;;;;;;;;;;;;;;;;;;5053525;28;20514;-61
2021/03/20 09:48:04;;;;;;;;;;;;;;;;;;5064465;28;20402;-61
2021/03/20 09:50:30;;;;;;;;;;;;;;;;;;5068553;28;20062;-61
2021/03/20 09:52:55;;;;;;;;;;;;;;;;;;5058406;28;19964;-61
2021/03/20 09:55:20;;;;;;;;;;;;;;;;;;5067870;28;19916;-62
2021/03/20 09:57:45;;;;;;;;;;;;;;;;;;5058851;28;19917;-61
2021/03/20 10:00:10;;;;;;;;;;;;;;;;;;5067277;28;19939;-61
2021/03/20 10:02:35;;;;;;;;;;;;;;;;;;5064910;28;19912;-62
2021/03/20 10:05:02;;;;;;;;;;;;;;;;;;5058252;28;20344;-62
2021/03/20 10:07:27;;;;;;;;;;;;;;;;;;5050604;28;19924;-62
2021/03/20 10:09:52;;;;;;;;;;;;;;;;;;5057657;28;20291;-62
2021/03/20 10:12:18;;;;;;;;;;;;;;;;;;5072431;28;20378;-62
2021/03/20 10:14:43;;;;;;;;;;;;;;;;;;5071333;28;20367;-62
2021/03/20 10:17:08;;;;;;;;;;;;;;;;;;5050980;28;19952;-62
2021/03/20 10:19:33;;;;;;;;;;;;;;;;;;5060116;28;19943;-62
2021/03/20 10:21:58;;;;;;;;;;;;;;;;;;5073742;28;19913;-62
2021/03/20 10:24:24;;;;;;;;;;;;;;;;;;5064281;28;19917;-62
2021/03/20 10:26:49;;;;;;;;;;;;;;;;;;5082966;28;20357;-62
2021/03/20 10:29:14;;;;;;;;;;;;;;;;;;5063453;28;19942;-62
2021/03/20 10:31:39;;;;;;;;;;;;;;;;;;5098221;27;19935;-63
2021/03/20 10:34:04;;;;;;;;;;;;;;;;;;5073170;28;19942;-61
2021/03/20 10:36:29;;;;;;;;;;;;;;;;;;5064407;28;19921;-61
2021/03/20 10:38:54;;;;;;;;;;;;;;;;;;5065388;28;20350;-63
2021/03/20 10:41:20;;;;;;;;;;;;;;;;;;5063099;28;19920;-63
2021/03/20 10:43:45;;;;;;;;;;;;;;;;;;5063169;28;19951;-63
2021/03/20 10:46:10;;;;;;;;;;;;;;;;;;5064213;28;19912;-63
2021/03/20 10:48:35;;;;;;;;;;;;;;;;;;5075245;28;19919;-63
2021/03/20 10:51:00;;;;;;;;;;;;;;;;;;5081002;28;20034;-62
2021/03/20 10:53:25;;;;;;;;;;;;;;;;;;5072852;28;20003;-62
2021/03/20 10:55:51;;;;;;;;;;;;;;;;;;5071994;28;20023;-62
2021/03/20 10:58:16;;;;;;;;;;;;;;;;;;5072887;28;19916;-62
2021/03/20 11:00:41;;;;;;;;;;;;;;;;;;5071504;28;19913;-61
2021/03/20 11:03:06;;;;;;;;;;;;;;;;;;5074076;28;19973;-64
2021/03/20 11:05:32;;;;;;;;;;;;;;;;;;5074815;28;19923;-63
2021/03/20 11:07:57;;;;;;;;;;;;;;;;;;5084415;28;20367;-64
2021/03/20 11:10:22;;;;;;;;;;;;;;;;;;5081027;28;19912;-64
2021/03/20 11:12:48;;;;;;;;;;;;;;;;;;5071856;28;19961;-66
2021/03/20 11:15:13;;;;;;;;;;;;;;;;;;5090147;28;20278;-65
2021/03/20 11:17:39;;;;;;;;;;;;;;;;;;5090703;28;19912;-67
2021/03/20 11:20:04;;;;;;;;;;;;;;;;;;5101292;28;19934;-66
2021/03/20 11:22:29;;;;;;;;;;;;;;;;;;5110324;28;19935;-66
2021/03/20 11:24:54;;;;;;;;;;;;;;;;;;5091651;28;20453;-66
2021/03/20 11:27:19;;;;;;;;;;;;;;;;;;5072305;28;19920;-66
2021/03/20 11:29:45;;;;;;;;;;;;;;;;;;5090889;28;19912;-65
2021/03/20 11:32:10;;;;;;;;;;;;;;;;;;5081334;28;19920;-67
2021/03/20 11:34:35;;;;;;;;;;;;;;;;;;5074846;28;20421;-67
2021/03/20 11:37:00;;;;;;;;;;;;;;;;;;5078336;28;20195;-66
2021/03/20 11:39:26;;;;;;;;;;;;;;;;;;5076683;28;19923;-67
2021/03/20 11:41:51;;;;;;;;;;;;;;;;;;5075470;28;19908;-67
2021/03/20 11:44:16;;;;;;;;;;;;;;;;;;5087897;28;20353;-67
2021/03/20 11:46:43;;;;;;;;;;;;;;;;;;5084451;28;19916;-67
2021/03/20 11:49:08;;;;;;;;;;;;;;;;;;5078649;28;19966;-68
2021/03/20 11:51:33;;;;;;;;;;;;;;;;;;5075324;28;19913;-68
2021/03/20 11:53:58;;;;;;;;;;;;;;;;;;5087957;28;19957;-67
2021/03/20 11:56:23;;;;;;;;;;;;;;;;;;5080273;28;19916;-68
2021/03/20 11:58:48;;;;;;;;;;;;;;;;;;5088538;28;19934;-69
2021/03/20 12:01:13;;;;;;;;;;;;;;;;;;5092272;28;20319;-66
2021/03/20 12:03:39;;;;;;;;;;;;;;;;;;5067438;28;20382;-67
2021/03/20 12:06:04;;;;;;;;;;;;;;;;;;5053300;28;20364;-67
2021/03/20 12:08:29;;;;;;;;;;;;;;;;;;5056615;28;20355;-68
2021/03/20 12:10:54;;;;;;;;;;;;;;;;;;5110504;27;19916;-68
2021/03/20 12:13:19;;;;;;;;;;;;;;;;;;5094032;28;19908;-68
2021/03/20 12:15:44;;;;;;;;;;;;;;;;;;5064378;28;19917;-67
2021/03/20 12:18:09;;;;;;;;;;;;;;;;;;5064251;28;19947;-67
2021/03/20 12:20:35;;;;;;;;;;;;;;;;;;5097874;27;19912;-68
2021/03/20 12:23:00;;;;;;;;;;;;;;;;;;5075647;28;19912;-67
2021/03/20 12:25:25;;;;;;;;;;;;;;;;;;5068032;28;19964;-68
2021/03/20 12:27:50;;;;;;;;;;;;;;;;;;5095017;27;19913;-67
2021/03/20 12:30:15;;;;;;;;;;;;;;;;;;5067268;28;19923;-69
2021/03/20 12:32:40;;;;;;;;;;;;;;;;;;5065908;28;19921;-67
2021/03/20 12:35:05;;;;;;;;;;;;;;;;;;5073764;28;20389;-67
2021/03/20 12:37:31;;;;;;;;;;;;;;;;;;5071729;28;19917;-67
2021/03/20 12:39:56;;;;;;;;;;;;;;;;;;5060241;28;19939;-68
2021/03/20 12:42:21;;;;;;;;;;;;;;;;;;5078194;28;19913;-68
2021/03/20 12:44:49;;;;;;;;;;;;;;;;;;5074229;28;19915;-66
2021/03/20 12:47:14;;;;;;;;;;;;;;;;;;5091515;28;19958;-66
2021/03/20 12:49:40;;;;;;;;;;;;;;;;;;5078535;28;19913;-66
2021/03/20 12:52:05;;;;;;;;;;;;;;;;;;5073907;28;19923;-68
2021/03/20 12:54:31;;;;;;;;;;;;;;;;;;5100651;28;20011;-67
2021/03/20 12:56:56;;;;;;;;;;;;;;;;;;5067260;28;19928;-67
2021/03/20 12:59:21;;;;;;;;;;;;;;;;;;5084345;28;20002;-67
2021/03/20 13:01:46;;;;;;;;;;;;;;;;;;5077951;28;19912;-67
2021/03/20 13:04:11;;;;;;;;;;;;;;;;;;5074013;28;19916;-67
2021/03/20 13:06:37;;;;;;;;;;;;;;;;;;5062053;28;19917;-67
2021/03/20 13:09:02;;;;;;;;;;;;;;;;;;5054861;28;19913;-67
2021/03/20 13:11:27;;;;;;;;;;;;;;;;;;5066018;28;20066;-68
2021/03/20 13:13:52;;;;;;;;;;;;;;;;;;5072473;28;19955;-68
2021/03/20 13:16:17;;;;;;;;;;;;;;;;;;5098441;27;20364;-66
2021/03/20 13:18:42;;;;;;;;;;;;;;;;;;5107423;28;19916;-66
2021/03/20 13:21:07;;;;;;;;;;;;;;;;;;5117303;27;19912;-67
2021/03/20 13:23:32;;;;;;;;;;;;;;;;;;5107453;28;19912;-67
2021/03/20 13:25:57;;;;;;;;;;;;;;;;;;5072242;28;19919;-66
2021/03/20 13:28:23;;;;;;;;;;;;;;;;;;5074285;28;19919;-67
2021/03/20 13:30:48;;;;;;;;;;;;;;;;;;5081495;28;19916;-67
2021/03/20 13:33:13;;;;;;;;;;;;;;;;;;5086513;28;19913;-66
2021/03/20 13:35:38;;;;;;;;;;;;;;;;;;5085570;28;19917;-66
2021/03/20 13:38:04;;;;;;;;;;;;;;;;;;5073919;28;19960;-66
2021/03/20 13:40:29;;;;;;;;;;;;;;;;;;5074920;28;19963;-66
2021/03/20 13:42:54;;;;;;;;;;;;;;;;;;5094026;28;19919;-66
2021/03/20 13:45:19;;;;;;;;;;;;;;;;;;5082217;28;19912;-66
2021/03/20 13:47:44;;;;;;;;;;;;;;;;;;5072154;28;19912;-65
2021/03/20 13:50:09;;;;;;;;;;;;;;;;;;5083182;28;19918;-65
2021/03/20 13:52:34;;;;;;;;;;;;;;;;;;5076814;28;19913;-66
2021/03/20 13:54:59;;;;;;;;;;;;;;;;;;5089591;28;20447;-66
2021/03/20 13:57:25;;;;;;;;;;;;;;;;;;5074452;28;19920;-67
2021/03/20 13:59:50;;;;;;;;;;;;;;;;;;5075667;28;20359;-66
2021/03/20 14:02:15;;;;;;;;;;;;;;;;;;5103880;28;19913;-66
2021/03/20 14:04:40;;;;;;;;;;;;;;;;;;5089808;28;20010;-66
2021/03/20 14:07:05;;;;;;;;;;;;;;;;;;5088245;28;19922;-67
2021/03/20 14:09:30;;;;;;;;;;;;;;;;;;5093284;28;19912;-66
2021/03/20 14:11:55;;;;;;;;;;;;;;;;;;5074617;28;20094;-66
2021/03/20 14:14:20;;;;;;;;;;;;;;;;;;5075857;28;19995;-67
2021/03/20 14:16:46;;;;;;;;;;;;;;;;;;5087512;28;20014;-67
2021/03/20 14:19:11;;;;;;;;;;;;;;;;;;5080896;28;19970;-66
2021/03/20 14:21:36;;;;;;;;;;;;;;;;;;5079111;28;19948;-67
2021/03/20 14:24:01;;;;;;;;;;;;;;;;;;5081159;28;20001;-66
2021/03/20 14:26:26;;;;;;;;;;;;;;;;;;5108405;27;19919;-66
2021/03/20 14:28:51;;;;;;;;;;;;;;;;;;5078807;28;19912;-66
2021/03/20 14:31:16;;;;;;;;;;;;;;;;;;5063790;28;20031;-66
2021/03/20 14:33:41;;;;;;;;;;;;;;;;;;5062856;28;19924;-67
2021/03/20 14:36:07;;;;;;;;;;;;;;;;;;5068651;28;19925;-67
2021/03/20 14:38:32;;;;;;;;;;;;;;;;;;5100236;27;19912;-67
2021/03/20 14:40:57;;;;;;;;;;;;;;;;;;5071957;28;19912;-68
2021/03/20 14:43:22;;;;;;;;;;;;;;;;;;5065629;28;19917;-67
2021/03/20 14:45:47;;;;;;;;;;;;;;;;;;5091543;27;20413;-68
2021/03/20 14:48:12;;;;;;;;;;;;;;;;;;5066065;28;19955;-67
2021/03/20 14:50:37;;;;;;;;;;;;;;;;;;5072834;28;19908;-66
2021/03/20 14:53:03;;;;;;;;;;;;;;;;;;5072633;28;19912;-65
2021/03/20 14:55:28;;;;;;;;;;;;;;;;;;5070586;28;19970;-66
2021/03/20 14:57:53;;;;;;;;;;;;;;;;;;5071780;28;19947;-64
2021/03/20 15:00:18;;;;;;;;;;;;;;;;;;5072222;28;20005;-65
2021/03/20 15:02:43;;;;;;;;;;;;;;;;;;5083079;28;19912;-65
2021/03/20 15:05:08;;;;;;;;;;;;;;;;;;5064426;28;19925;-67
2021/03/20 15:07:33;;;;;;;;;;;;;;;;;;5057594;28;19966;-67
2021/03/20 15:09:58;;;;;;;;;;;;;;;;;;5065263;28;19912;-66
2021/03/20 15:12:23;;;;;;;;;;;;;;;;;;5072735;28;19939;-66
2021/03/20 15:14:49;;;;;;;;;;;;;;;;;;5071323;28;19917;-66
2021/03/20 15:17:14;;;;;;;;;;;;;;;;;;5095669;28;19948;-66
2021/03/20 15:19:39;;;;;;;;;;;;;;;;;;5071264;28;19966;-66
2021/03/20 15:22:04;;;;;;;;;;;;;;;;;;5065928;28;19917;-67
2021/03/20 15:24:29;;;;;;;;;;;;;;;;;;5085018;28;19983;-66
2021/03/20 15:26:54;;;;;;;;;;;;;;;;;;5065499;28;19940;-67
2021/03/20 15:29:19;;;;;;;;;;;;;;;;;;5076144;28;20335;-66
2021/03/20 15:31:44;;;;;;;;;;;;;;;;;;5073420;28;20379;-66
2021/03/20 15:34:09;;;;;;;;;;;;;;;;;;5090851;28;19908;-66
2021/03/20 15:36:35;;;;;;;;;;;;;;;;;;5102108;28;20015;-66
2021/03/20 15:39:00;;;;;;;;;;;;;;;;;;5071697;28;20671;-65
2021/03/20 15:41:25;;;;;;;;;;;;;;;;;;5074512;28;19916;-67
2021/03/20 15:43:50;;;;;;;;;;;;;;;;;;5088612;28;19970;-68
2021/03/20 15:46:16;;;;;;;;;;;;;;;;;;5058977;28;20359;-67
2021/03/20 15:48:41;;;;;;;;;;;;;;;;;;5071695;28;20371;-67
2021/03/20 15:51:06;;;;;;;;;;;;;;;;;;5074150;28;20003;-67
2021/03/20 15:53:31;;;;;;;;;;;;;;;;;;5062510;28;20387;-68
2021/03/20 15:55:56;;;;;;;;;;;;;;;;;;5104437;28;19963;-67
2021/03/20 15:58:22;;;;;;;;;;;;;;;;;;5063943;28;19939;-67
2021/03/20 16:00:47;;;;;;;;;;;;;;;;;;5062614;28;20368;-68
2021/03/20 16:03:12;;;;;;;;;;;;;;;;;;5102767;28;19982;-67
2021/03/20 16:05:38;;;;;;;;;;;;;;;;;;5060751;28;19913;-67
2021/03/20 16:08:03;;;;;;;;;;;;;;;;;;5067493;28;19963;-68
2021/03/20 16:10:28;;;;;;;;;;;;;;;;;;5069740;28;20288;-67
2021/03/20 16:12:54;;;;;;;;;;;;;;;;;;5080446;28;19908;-68
2021/03/20 16:15:20;;;;;;;;;;;;;;;;;;5052136;28;20275;-69
2021/03/20 16:17:45;;;;;;;;;;;;;;;;;;5057139;28;20268;-66
2021/03/20 16:20:11;;;;;;;;;;;;;;;;;;5071412;28;19970;-65
2021/03/20 16:22:36;;;;;;;;;;;;;;;;;;5074759;28;19914;-66
2021/03/20 16:25:01;;;;;;;;;;;;;;;;;;5071935;28;20050;-66
2021/03/20 16:27:26;;;;;;;;;;;;;;;;;;5097519;27;19913;-65
2021/03/20 16:29:51;;;;;;;;;;;;;;;;;;5060791;28;19919;-66